Terminal Aerodrome Forecast
Issued by NWS Louisville, KY

Home | Current Version | Previous Version | Text Only | Print | Product List | Glossary On
Versions: 1 2 3 4 5 6 7 8 9 10 11 12
518
FTUS43 KLMK 191720
TAFSDF
TAF
KSDF 191720Z 1918/2024 22010KT P6SM FEW250
     FM200000 VRB03KT P6SM SKC
      TEMPO 2009/2012 1 1/2SM BR FEW200
     FM201300 VRB03KT P6SM FEW200=

USA.gov is the U.S. government's official web portal to all federal, state and local government web resources and services.